Time;durP1;ratioP1;P1;durP2;ratioP2;P2;SDS_P1;SDS_P2;PMS_P1;PMS_P2;Temp;Humidity;BMP_temperature;BMP_pressure;BME280_temperature;BME280_humidity;BME280_pressure;Samples;Min_cycle;Max_cycle;Signal;HPM_P1;HPM_P2
2023/12/23 00:00:55;;;;;;;15.43;12.23;;;;;;;;;;5005289;28;20034;-74
2023/12/23 00:03:21;;;;;;;11.80;8.73;;;;;;;;;;4992450;28;20370;-75
2023/12/23 00:05:46;;;;;;;10.57;8.55;;;;;;;;;;4995230;28;20030;-75
2023/12/23 00:08:12;;;;;;;7.05;5.30;;;;;;;;;;5001954;28;20057;-74
2023/12/23 00:10:37;;;;;;;9.70;7.55;;;;;;;;;;5003834;28;20422;-73
2023/12/23 00:13:02;;;;;;;14.43;10.63;;;;;;;;;;5003565;28;20030;-73
2023/12/23 00:15:28;;;;;;;7.28;5.47;;;;;;;;;;4999421;28;20042;-75
2023/12/23 00:17:53;;;;;;;8.05;4.55;;;;;;;;;;4989928;28;20912;-76
2023/12/23 00:20:18;;;;;;;5.07;4.20;;;;;;;;;;4993048;28;20408;-74
2023/12/23 00:22:44;;;;;;;4.90;4.38;;;;;;;;;;5005100;28;20116;-74
2023/12/23 00:25:09;;;;;;;7.05;5.25;;;;;;;;;;5003491;28;20858;-74
2023/12/23 00:27:34;;;;;;;21.05;18.77;;;;;;;;;;5004112;28;20367;-74
2023/12/23 00:30:01;;;;;;;20.48;16.08;;;;;;;;;;4999979;28;20029;-76
2023/12/23 00:32:26;;;;;;;13.95;12.15;;;;;;;;;;4988028;28;20018;-75
2023/12/23 00:34:51;;;;;;;7.70;6.95;;;;;;;;;;4989808;28;20365;-74
2023/12/23 00:37:17;;;;;;;10.30;6.50;;;;;;;;;;4997769;28;20018;-75
2023/12/23 00:39:42;;;;;;;4.90;4.30;;;;;;;;;;4990240;28;20041;-74
2023/12/23 00:42:08;;;;;;;5.95;4.18;;;;;;;;;;5003777;28;20065;-75
2023/12/23 00:44:33;;;;;;;13.57;8.50;;;;;;;;;;4990966;28;21139;-74
2023/12/23 00:46:58;;;;;;;18.08;12.10;;;;;;;;;;5002824;28;20045;-75
2023/12/23 00:49:24;;;;;;;34.85;25.70;;;;;;;;;;5003310;28;20091;-74
2023/12/23 00:51:49;;;;;;;13.95;9.00;;;;;;;;;;5003561;28;21169;-74
2023/12/23 00:54:17;;;;;;;7.65;5.18;;;;;;;;;;5004226;28;20095;-74
2023/12/23 00:56:42;;;;;;;9.00;5.47;;;;;;;;;;4992446;28;20103;-75
2023/12/23 00:59:07;;;;;;;5.70;3.80;;;;;;;;;;5003540;28;20437;-75
2023/12/23 01:01:33;;;;;;;16.05;10.95;;;;;;;;;;5004319;28;20503;-74
2023/12/23 01:03:58;;;;;;;9.02;5.28;;;;;;;;;;5003428;28;20026;-74
2023/12/23 01:06:23;;;;;;;6.65;3.92;;;;;;;;;;5002780;28;20501;-73
2023/12/23 01:08:49;;;;;;;6.20;4.47;;;;;;;;;;4996058;28;20365;-72
2023/12/23 01:11:14;;;;;;;6.35;5.32;;;;;;;;;;4993500;28;20017;-73
2023/12/23 01:13:39;;;;;;;11.30;8.85;;;;;;;;;;4998114;28;20026;-73
2023/12/23 01:16:05;;;;;;;7.10;4.10;;;;;;;;;;5003494;28;20034;-72
2023/12/23 01:18:30;;;;;;;12.85;8.50;;;;;;;;;;5004052;28;20103;-73
2023/12/23 01:20:55;;;;;;;15.30;9.27;;;;;;;;;;5005239;28;20030;-74
2023/12/23 01:23:21;;;;;;;6.40;4.68;;;;;;;;;;5004232;28;20091;-75
2023/12/23 01:25:46;;;;;;;8.95;5.20;;;;;;;;;;5004395;28;20034;-75
2023/12/23 01:28:11;;;;;;;10.02;5.07;;;;;;;;;;5003460;28;20029;-73
2023/12/23 01:30:37;;;;;;;6.20;5.07;;;;;;;;;;4992649;28;20026;-74
2023/12/23 01:33:02;;;;;;;6.55;5.78;;;;;;;;;;5001334;28;20497;-74
2023/12/23 01:35:27;;;;;;;5.50;3.95;;;;;;;;;;5001589;28;20053;-74
2023/12/23 01:37:53;;;;;;;11.75;8.10;;;;;;;;;;5003904;28;20060;-74
2023/12/23 01:40:18;;;;;;;4.30;3.15;;;;;;;;;;5002288;28;20319;-75
2023/12/23 01:42:44;;;;;;;5.95;3.38;;;;;;;;;;4981958;28;20127;-76
2023/12/23 01:45:10;;;;;;;10.63;6.63;;;;;;;;;;4992804;28;20025;-74
2023/12/23 01:47:37;;;;;;;9.60;4.80;;;;;;;;;;5002254;28;20030;-75
2023/12/23 01:50:03;;;;;;;4.40;2.90;;;;;;;;;;5002611;28;20026;-73
2023/12/23 01:52:29;;;;;;;4.30;3.38;;;;;;;;;;5002726;28;20107;-74
2023/12/23 01:54:55;;;;;;;4.18;2.80;;;;;;;;;;4998148;28;20433;-73
2023/12/23 01:57:20;;;;;;;5.22;2.95;;;;;;;;;;4995240;28;20029;-72
2023/12/23 01:59:46;;;;;;;5.45;2.58;;;;;;;;;;4988598;28;20030;-74
2023/12/23 02:02:11;;;;;;;4.50;3.22;;;;;;;;;;4988210;28;20049;-76
2023/12/23 02:04:37;;;;;;;5.57;3.40;;;;;;;;;;5000258;28;20049;-76
2023/12/23 02:07:03;;;;;;;5.22;3.53;;;;;;;;;;5002518;28;20149;-74
2023/12/23 02:09:28;;;;;;;4.10;3.63;;;;;;;;;;5002364;28;20099;-74
2023/12/23 02:12:06;;;;;;;6.25;3.80;;;;;;;;;;5001774;28;20457;-73
2023/12/23 02:14:36;;;;;;;2.97;2.22;;;;;;;;;;5002115;28;20101;-75
2023/12/23 02:17:02;;;;;;;5.05;3.60;;;;;;;;;;4993114;28;20398;-75
2023/12/23 02:19:27;;;;;;;4.97;3.38;;;;;;;;;;4993098;28;20083;-76
2023/12/23 02:21:52;;;;;;;4.53;2.95;;;;;;;;;;5002999;28;20342;-74
2023/12/23 02:24:18;;;;;;;4.22;3.08;;;;;;;;;;5002432;28;20092;-74
2023/12/23 02:26:48;;;;;;;4.82;3.65;;;;;;;;;;5002104;28;20033;-73
2023/12/23 02:29:14;;;;;;;5.20;3.40;;;;;;;;;;5001733;28;20123;-75
2023/12/23 02:31:39;;;;;;;3.67;2.92;;;;;;;;;;5002347;28;20034;-73
2023/12/23 02:34:05;;;;;;;4.03;2.97;;;;;;;;;;5001948;28;20044;-74
2023/12/23 02:36:31;;;;;;;4.63;3.08;;;;;;;;;;4989849;28;20048;-75
2023/12/23 02:38:56;;;;;;;6.55;3.58;;;;;;;;;;5002516;28;20430;-72
2023/12/23 02:41:22;;;;;;;6.85;3.60;;;;;;;;;;5002708;28;20034;-75
2023/12/23 02:43:47;;;;;;;3.35;2.55;;;;;;;;;;4994673;28;21462;-74
2023/12/23 02:46:12;;;;;;;4.60;3.60;;;;;;;;;;4997206;28;20025;-75
2023/12/23 02:48:38;;;;;;;6.60;3.60;;;;;;;;;;5002532;28;20032;-74
2023/12/23 02:51:03;;;;;;;4.18;2.60;;;;;;;;;;5002081;28;20032;-77
2023/12/23 02:53:29;;;;;;;4.45;3.15;;;;;;;;;;5002212;28;20022;-73
2023/12/23 02:55:54;;;;;;;6.03;4.28;;;;;;;;;;4991039;28;21097;-74
2023/12/23 02:58:19;;;;;;;7.20;4.22;;;;;;;;;;4985965;28;20084;-75
2023/12/23 03:00:45;;;;;;;7.05;3.83;;;;;;;;;;5002046;28;20032;-75
2023/12/23 03:03:10;;;;;;;5.78;3.42;;;;;;;;;;5005266;28;20053;-75
2023/12/23 03:05:35;;;;;;;3.97;3.38;;;;;;;;;;5002012;28;20090;-73
2023/12/23 03:08:01;;;;;;;5.18;3.15;;;;;;;;;;5001824;28;20133;-74
2023/12/23 03:10:26;;;;;;;6.75;4.40;;;;;;;;;;5001264;28;20054;-73
2023/12/23 03:12:51;;;;;;;4.90;3.03;;;;;;;;;;5001752;28;20030;-75
2023/12/23 03:15:17;;;;;;;5.85;2.88;;;;;;;;;;5000927;28;20084;-76
2023/12/23 03:17:42;;;;;;;5.53;3.15;;;;;;;;;;5001283;28;20049;-73
2023/12/23 03:20:08;;;;;;;3.97;2.80;;;;;;;;;;5001150;28;20118;-75
2023/12/23 03:22:34;;;;;;;6.40;3.80;;;;;;;;;;5001409;28;20029;-72
2023/12/23 03:24:59;;;;;;;5.97;2.90;;;;;;;;;;5001866;28;20454;-74
2023/12/23 03:27:24;;;;;;;4.15;3.30;;;;;;;;;;5001984;28;20025;-73
2023/12/23 03:29:49;;;;;;;5.13;3.80;;;;;;;;;;5002854;28;20025;-74
2023/12/23 03:32:15;;;;;;;6.05;3.20;;;;;;;;;;5001064;28;20034;-75
2023/12/23 03:34:41;;;;;;;6.03;4.03;;;;;;;;;;5001694;28;20042;-73
2023/12/23 03:37:06;;;;;;;8.02;4.70;;;;;;;;;;5001296;28;20117;-74
2023/12/23 03:39:31;;;;;;;58.22;31.70;;;;;;;;;;5001257;28;20026;-74
2023/12/23 03:41:57;;;;;;;29.05;20.00;;;;;;;;;;5001534;28;20064;-75
2023/12/23 03:44:22;;;;;;;15.38;10.00;;;;;;;;;;4989861;28;20030;-74
2023/12/23 03:46:47;;;;;;;8.00;5.88;;;;;;;;;;5000998;28;20033;-75
2023/12/23 03:49:13;;;;;;;6.13;4.22;;;;;;;;;;5001798;28;20033;-75
2023/12/23 03:51:38;;;;;;;5.65;4.30;;;;;;;;;;5001552;28;20109;-76
2023/12/23 03:54:04;;;;;;;4.82;3.92;;;;;;;;;;5001204;28;20061;-75
2023/12/23 03:56:29;;;;;;;8.82;5.68;;;;;;;;;;4989994;28;20026;-76
2023/12/23 03:58:54;;;;;;;4.68;3.47;;;;;;;;;;5002092;28;20022;-74
2023/12/23 04:01:19;;;;;;;5.25;2.90;;;;;;;;;;5000532;28;20022;-73
2023/12/23 04:03:45;;;;;;;11.93;7.45;;;;;;;;;;5006323;28;20084;-72
2023/12/23 04:06:11;;;;;;;13.25;8.32;;;;;;;;;;5001616;28;20089;-74
2023/12/23 04:08:37;;;;;;;11.40;9.07;;;;;;;;;;5001280;28;20685;-73
2023/12/23 04:11:02;;;;;;;9.73;8.73;;;;;;;;;;5002747;28;20456;-75
2023/12/23 04:13:29;;;;;;;25.20;22.60;;;;;;;;;;5004729;28;20029;-73
2023/12/23 04:15:54;;;;;;;7.65;6.40;;;;;;;;;;5004984;28;20418;-73
2023/12/23 04:18:20;;;;;;;4.50;3.45;;;;;;;;;;4994230;28;20026;-74
2023/12/23 04:20:45;;;;;;;5.03;2.65;;;;;;;;;;5003391;28;20038;-74
2023/12/23 04:23:11;;;;;;;3.38;2.58;;;;;;;;;;5004307;28;20084;-72
2023/12/23 04:25:37;;;;;;;7.93;3.65;;;;;;;;;;5003921;28;20377;-80
2023/12/23 04:28:02;;;;;;;5.68;4.13;;;;;;;;;;5004579;28;20083;-73
2023/12/23 04:30:27;;;;;;;4.47;3.65;;;;;;;;;;5004132;28;20400;-72
2023/12/23 04:32:53;;;;;;;3.97;3.25;;;;;;;;;;5004480;28;20033;-76
2023/12/23 04:35:18;;;;;;;5.82;3.60;;;;;;;;;;4992548;28;20041;-72
2023/12/23 04:37:44;;;;;;;5.40;3.97;;;;;;;;;;5004304;28;20349;-75
2023/12/23 04:40:10;;;;;;;19.33;12.20;;;;;;;;;;5004311;28;20100;-75
2023/12/23 04:42:36;;;;;;;71.50;59.30;;;;;;;;;;5004047;28;20141;-72
2023/12/23 04:45:01;;;;;;;17.48;13.93;;;;;;;;;;4985669;28;20109;-72
2023/12/23 04:47:27;;;;;;;13.75;11.68;;;;;;;;;;5003214;28;20029;-73
2023/12/23 04:49:52;;;;;;;6.72;5.32;;;;;;;;;;5004070;28;20022;-72
2023/12/23 04:52:18;;;;;;;4.28;3.75;;;;;;;;;;5004546;28;20033;-75
2023/12/23 04:54:43;;;;;;;4.47;3.72;;;;;;;;;;5003677;28;20603;-73
2023/12/23 04:57:08;;;;;;;6.65;4.25;;;;;;;;;;4992933;28;20061;-72
2023/12/23 04:59:34;;;;;;;4.30;3.90;;;;;;;;;;5004165;28;20018;-73
2023/12/23 05:01:59;;;;;;;4.85;3.22;;;;;;;;;;5004314;28;20025;-73
2023/12/23 05:04:25;;;;;;;4.78;4.03;;;;;;;;;;4990715;28;20038;-73
2023/12/23 05:06:50;;;;;;;4.70;3.55;;;;;;;;;;5003897;28;20092;-71
2023/12/23 05:09:16;;;;;;;3.92;3.53;;;;;;;;;;5001654;28;20053;-73
2023/12/23 05:11:41;;;;;;;5.63;4.38;;;;;;;;;;4987325;28;20018;-75
2023/12/23 05:14:06;;;;;;;6.90;3.60;;;;;;;;;;4988535;28;20099;-72
2023/12/23 05:16:32;;;;;;;6.05;3.25;;;;;;;;;;5002780;28;20058;-74
2023/12/23 05:18:57;;;;;;;5.95;4.10;;;;;;;;;;4994890;28;20034;-73
2023/12/23 05:21:22;;;;;;;37.22;28.92;;;;;;;;;;4987304;28;20118;-74
2023/12/23 05:23:48;;;;;;;36.65;31.20;;;;;;;;;;4989010;28;20076;-76
2023/12/23 05:26:17;;;;;;;23.98;20.33;;;;;;;;;;4997204;28;20026;-73
2023/12/23 05:28:42;;;;;;;38.65;30.40;;;;;;;;;;5003104;28;20130;-74
2023/12/23 05:31:08;;;;;;;53.38;41.58;;;;;;;;;;4991147;28;20362;-74
2023/12/23 05:33:33;;;;;;;39.75;32.08;;;;;;;;;;4996088;28;20033;-74
2023/12/23 05:35:58;;;;;;;28.90;23.95;;;;;;;;;;4990085;28;20045;-74
2023/12/23 05:38:24;;;;;;;18.30;14.05;;;;;;;;;;5002976;28;20038;-73
2023/12/23 05:40:49;;;;;;;21.92;16.10;;;;;;;;;;5003168;28;20018;-73
2023/12/23 05:43:15;;;;;;;9.57;7.45;;;;;;;;;;5003420;28;20025;-74
2023/12/23 05:45:40;;;;;;;15.90;11.93;;;;;;;;;;4991936;28;20034;-74
2023/12/23 05:48:06;;;;;;;18.85;14.23;;;;;;;;;;5002119;28;20021;-73
2023/12/23 05:50:31;;;;;;;11.30;9.32;;;;;;;;;;4996208;28;20022;-73
2023/12/23 05:52:56;;;;;;;13.07;11.07;;;;;;;;;;4990929;28;20471;-74
2023/12/23 05:55:22;;;;;;;26.38;22.92;;;;;;;;;;4989939;28;20033;-74
2023/12/23 05:57:47;;;;;;;14.35;12.07;;;;;;;;;;4987047;28;20446;-72
2023/12/23 06:00:13;;;;;;;12.38;9.75;;;;;;;;;;4973856;28;20026;-73
2023/12/23 06:02:38;;;;;;;15.07;12.52;;;;;;;;;;4986784;28;20026;-74
2023/12/23 06:05:04;;;;;;;15.38;12.43;;;;;;;;;;4987033;28;20026;-74
2023/12/23 06:07:30;;;;;;;22.25;17.08;;;;;;;;;;4988024;28;20053;-72
2023/12/23 06:09:55;;;;;;;15.93;14.23;;;;;;;;;;4986215;28;20382;-74
2023/12/23 06:12:20;;;;;;;32.08;28.50;;;;;;;;;;4987410;28;20057;-73
2023/12/23 06:14:46;;;;;;;13.25;9.93;;;;;;;;;;4971368;28;20084;-73
2023/12/23 06:17:11;;;;;;;13.13;11.82;;;;;;;;;;4988023;28;20412;-72
2023/12/23 06:19:37;;;;;;;10.57;9.48;;;;;;;;;;4971268;28;20033;-73
2023/12/23 06:22:02;;;;;;;7.05;6.18;;;;;;;;;;4988317;28;20092;-73
2023/12/23 06:24:27;;;;;;;7.00;5.32;;;;;;;;;;4988200;28;20052;-74
2023/12/23 06:26:53;;;;;;;6.88;6.15;;;;;;;;;;4970226;28;20030;-73
2023/12/23 06:29:18;;;;;;;6.85;6.15;;;;;;;;;;4987602;28;20026;-75
2023/12/23 06:31:44;;;;;;;8.73;7.00;;;;;;;;;;4986746;28;20365;-74
2023/12/23 06:34:09;;;;;;;11.32;10.20;;;;;;;;;;4985460;28;20026;-75
2023/12/23 06:36:34;;;;;;;11.55;8.98;;;;;;;;;;4987626;28;20053;-75
2023/12/23 06:39:00;;;;;;;17.63;14.10;;;;;;;;;;4988640;28;20032;-76
2023/12/23 06:41:25;;;;;;;47.55;11.68;;;;;;;;;;4987184;28;20120;-72
2023/12/23 06:43:50;;;;;;;24.08;9.20;;;;;;;;;;4986972;28;20026;-73
2023/12/23 06:46:16;;;;;;;18.25;13.23;;;;;;;;;;4877072;28;21133;-64
2023/12/23 06:48:41;;;;;;;17.95;15.25;;;;;;;;;;4958859;28;20041;-67
2023/12/23 06:51:07;;;;;;;9.82;8.10;;;;;;;;;;4960857;28;20048;-66
2023/12/23 06:53:32;;;;;;;14.30;12.52;;;;;;;;;;4989793;28;20479;-64
2023/12/23 06:55:57;;;;;;;17.48;15.02;;;;;;;;;;4988896;28;20133;-65
2023/12/23 06:58:23;;;;;;;10.57;9.40;;;;;;;;;;4996483;28;20022;-65
2023/12/23 07:00:49;;;;;;;12.32;9.77;;;;;;;;;;4999678;28;20077;-66
2023/12/23 07:03:14;;;;;;;14.63;11.63;;;;;;;;;;4990137;28;20058;-64
2023/12/23 07:05:39;;;;;;;15.95;13.00;;;;;;;;;;4999390;28;20084;-64
2023/12/23 07:08:05;;;;;;;10.68;9.55;;;;;;;;;;4998610;28;20143;-65
2023/12/23 07:10:31;;;;;;;11.55;9.10;;;;;;;;;;4993600;28;20128;-65
2023/12/23 07:12:56;;;;;;;12.35;10.27;;;;;;;;;;4995107;28;20026;-64
2023/12/23 07:15:22;;;;;;;11.25;10.10;;;;;;;;;;4999162;28;20433;-63
2023/12/23 07:17:47;;;;;;;12.52;11.20;;;;;;;;;;4997747;28;20393;-66
2023/12/23 07:20:13;;;;;;;11.45;9.57;;;;;;;;;;4990999;28;20030;-70
2023/12/23 07:22:38;;;;;;;9.10;7.05;;;;;;;;;;4998946;28;20107;-67
2023/12/23 07:25:04;;;;;;;14.82;12.38;;;;;;;;;;4999310;28;20101;-65
2023/12/23 07:27:29;;;;;;;20.48;15.75;;;;;;;;;;4999025;28;20085;-66
2023/12/23 07:29:54;;;;;;;22.80;15.40;;;;;;;;;;5000087;28;20096;-64
2023/12/23 07:32:20;;;;;;;19.35;15.10;;;;;;;;;;4999559;28;20033;-65
2023/12/23 07:34:45;;;;;;;16.08;13.75;;;;;;;;;;4992131;28;20045;-63
2023/12/23 07:37:10;;;;;;;18.95;14.50;;;;;;;;;;4987233;28;20033;-67
2023/12/23 07:39:35;;;;;;;24.58;17.48;;;;;;;;;;4986328;28;20041;-69
2023/12/23 07:42:01;;;;;;;12.75;8.65;;;;;;;;;;4986848;28;20045;-67
2023/12/23 07:44:26;;;;;;;22.20;17.17;;;;;;;;;;4986774;28;20488;-65
2023/12/23 07:46:52;;;;;;;16.95;13.95;;;;;;;;;;4998301;28;20468;-65
2023/12/23 07:49:17;;;;;;;14.70;10.18;;;;;;;;;;4999914;28;20713;-65
2023/12/23 07:51:42;;;;;;;17.73;11.80;;;;;;;;;;4991338;28;20461;-65
2023/12/23 07:54:07;;;;;;;67.50;48.35;;;;;;;;;;4989804;28;20029;-67
2023/12/23 07:56:33;;;;;;;24.73;17.83;;;;;;;;;;5003387;28;20028;-67
2023/12/23 07:58:58;;;;;;;43.05;27.70;;;;;;;;;;4989556;28;20037;-66
2023/12/23 08:01:24;;;;;;;21.75;16.35;;;;;;;;;;4973562;28;20033;-64
2023/12/23 08:03:49;;;;;;;14.32;10.18;;;;;;;;;;4966192;28;20052;-67
2023/12/23 08:06:16;;;;;;;10.63;8.10;;;;;;;;;;4989600;28;20069;-66
2023/12/23 08:08:42;;;;;;;12.07;9.55;;;;;;;;;;4987899;28;20302;-67
2023/12/23 08:11:07;;;;;;;16.17;13.10;;;;;;;;;;4941458;28;20119;-66
2023/12/23 08:13:33;;;;;;;34.90;28.70;;;;;;;;;;4977069;28;20111;-67
2023/12/23 08:15:58;;;;;;;12.15;9.20;;;;;;;;;;4988483;28;21858;-66
2023/12/23 08:18:24;;;;;;;9.80;7.40;;;;;;;;;;4989790;28;20025;-65
2023/12/23 08:20:49;;;;;;;10.82;6.97;;;;;;;;;;4987789;28;20084;-66
2023/12/23 08:23:14;;;;;;;9.75;8.20;;;;;;;;;;4989706;28;20033;-65
2023/12/23 08:25:40;;;;;;;12.00;10.57;;;;;;;;;;4989158;28;20460;-64
2023/12/23 08:28:06;;;;;;;12.60;11.30;;;;;;;;;;4988459;28;20040;-66
2023/12/23 08:30:32;;;;;;;18.70;16.70;;;;;;;;;;4988063;28;20430;-66
2023/12/23 08:32:57;;;;;;;14.02;11.18;;;;;;;;;;5001383;28;20037;-66
2023/12/23 08:35:23;;;;;;;10.57;8.32;;;;;;;;;;4992137;28;20507;-65
2023/12/23 08:37:48;;;;;;;9.18;7.93;;;;;;;;;;4989250;28;20037;-65
2023/12/23 08:40:14;;;;;;;10.15;9.05;;;;;;;;;;5001883;28;20529;-66
2023/12/23 08:42:39;;;;;;;6.78;6.07;;;;;;;;;;5001297;28;20030;-66
2023/12/23 08:45:05;;;;;;;6.80;5.55;;;;;;;;;;5002322;28;20041;-67
2023/12/23 08:47:30;;;;;;;9.32;8.13;;;;;;;;;;5001803;28;20025;-68
2023/12/23 08:49:55;;;;;;;9.30;8.40;;;;;;;;;;5001053;28;20100;-65
2023/12/23 08:52:21;;;;;;;6.30;5.55;;;;;;;;;;5001484;28;20037;-67
2023/12/23 08:54:46;;;;;;;5.97;5.38;;;;;;;;;;4990521;28;20038;-65
2023/12/23 08:57:11;;;;;;;13.55;10.20;;;;;;;;;;4989297;28;20022;-65
2023/12/23 08:59:36;;;;;;;6.35;5.70;;;;;;;;;;5001300;28;20076;-69
2023/12/23 09:02:03;;;;;;;7.55;6.72;;;;;;;;;;4996665;28;20353;-64
2023/12/23 09:04:29;;;;;;;7.00;6.30;;;;;;;;;;4994809;28;20033;-68
2023/12/23 09:06:54;;;;;;;18.40;11.35;;;;;;;;;;5002001;28;20295;-66
2023/12/23 09:09:20;;;;;;;10.82;9.15;;;;;;;;;;5001218;28;20141;-68
2023/12/23 09:11:45;;;;;;;7.90;6.18;;;;;;;;;;5000969;28;20022;-66
2023/12/23 09:14:11;;;;;;;14.10;11.32;;;;;;;;;;4997680;28;20116;-65
2023/12/23 09:16:36;;;;;;;7.30;6.60;;;;;;;;;;4995743;28;20030;-66
2023/12/23 09:19:03;;;;;;;4.07;3.67;;;;;;;;;;4991378;28;20026;-65
2023/12/23 09:21:28;;;;;;;13.75;12.30;;;;;;;;;;4988474;28;20064;-65
2023/12/23 09:23:53;;;;;;;9.38;8.18;;;;;;;;;;4988060;28;20389;-67
2023/12/23 09:26:20;;;;;;;12.25;10.02;;;;;;;;;;4988709;28;20406;-66
2023/12/23 09:28:45;;;;;;;14.45;10.73;;;;;;;;;;4988160;28;20113;-65
2023/12/23 09:31:10;;;;;;;15.23;13.30;;;;;;;;;;4986943;28;20109;-66
2023/12/23 09:33:36;;;;;;;17.80;15.82;;;;;;;;;;4987302;28;20061;-65
2023/12/23 09:36:02;;;;;;;29.60;22.33;;;;;;;;;;4989590;28;20347;-66
2023/12/23 09:38:27;;;;;;;24.23;18.35;;;;;;;;;;4988675;28;20025;-67
2023/12/23 09:40:52;;;;;;;17.45;13.38;;;;;;;;;;4988236;28;20053;-65
2023/12/23 09:43:18;;;;;;;19.55;15.93;;;;;;;;;;4988027;28;20092;-67
2023/12/23 09:45:46;;;;;;;19.73;14.63;;;;;;;;;;4988668;28;20030;-67
2023/12/23 09:48:11;;;;;;;24.70;16.58;;;;;;;;;;4988224;28;20040;-66
2023/12/23 09:50:36;;;;;;;30.95;21.70;;;;;;;;;;4988482;28;20097;-64
2023/12/23 09:53:03;;;;;;;23.10;18.42;;;;;;;;;;4987891;28;20025;-66
2023/12/23 09:55:30;;;;;;;15.07;12.77;;;;;;;;;;4987551;28;21257;-66
2023/12/23 09:57:55;;;;;;;41.85;26.15;;;;;;;;;;4997253;28;20120;-65
2023/12/23 10:00:21;;;;;;;21.77;17.15;;;;;;;;;;4994667;28;20040;-66
2023/12/23 10:02:46;;;;;;;18.95;16.95;;;;;;;;;;4992909;28;20124;-65
2023/12/23 10:05:12;;;;;;;9.60;8.57;;;;;;;;;;4988351;28;20026;-65
2023/12/23 10:07:38;;;;;;;20.38;15.32;;;;;;;;;;4987990;28;20029;-65
2023/12/23 10:10:04;;;;;;;17.92;13.82;;;;;;;;;;4986291;28;20145;-67
2023/12/23 10:12:29;;;;;;;26.45;19.55;;;;;;;;;;4988452;28;20030;-69
2023/12/23 10:14:54;;;;;;;39.60;27.88;;;;;;;;;;4986555;28;20052;-67
2023/12/23 10:17:20;;;;;;;17.23;12.13;;;;;;;;;;4988145;28;20025;-67
2023/12/23 10:19:48;;;;;;;30.13;22.25;;;;;;;;;;4974578;28;20033;-69
2023/12/23 10:22:16;;;;;;;31.65;23.90;;;;;;;;;;4970650;28;20415;-67
2023/12/23 10:24:41;;;;;;;29.15;22.90;;;;;;;;;;4984515;28;20042;-67
2023/12/23 10:27:07;;;;;;;18.88;15.88;;;;;;;;;;4971164;28;20350;-65
2023/12/23 10:29:33;;;;;;;13.23;11.77;;;;;;;;;;4987444;28;20107;-65
2023/12/23 10:32:02;;;;;;;78.60;47.22;;;;;;;;;;4988496;28;20106;-64
2023/12/23 10:34:31;;;;;;;17.67;12.50;;;;;;;;;;4988804;28;20033;-69
2023/12/23 10:36:58;;;;;;;14.55;12.98;;;;;;;;;;4988337;28;20444;-66
2023/12/23 10:39:28;;;;;;;11.98;10.35;;;;;;;;;;4987448;28;20033;-68
2023/12/23 10:41:53;;;;;;;17.98;14.50;;;;;;;;;;4987716;28;20030;-66
2023/12/23 10:44:20;;;;;;;15.90;12.27;;;;;;;;;;4987371;28;20030;-65
2023/12/23 10:46:46;;;;;;;5.65;4.82;;;;;;;;;;4986812;28;20022;-65
2023/12/23 10:49:12;;;;;;;37.00;23.70;;;;;;;;;;4987449;28;20514;-65
2023/12/23 10:51:38;;;;;;;43.25;29.15;;;;;;;;;;4987554;28;20041;-65
2023/12/23 10:54:04;;;;;;;14.00;11.88;;;;;;;;;;4987453;28;20041;-64
2023/12/23 10:56:29;;;;;;;12.13;8.23;;;;;;;;;;4987595;28;20037;-68
2023/12/23 10:58:55;;;;;;;20.88;17.55;;;;;;;;;;4998629;28;20029;-70
2023/12/23 11:01:22;;;;;;;43.13;27.13;;;;;;;;;;5000763;28;20068;-68
2023/12/23 11:03:50;;;;;;;6.35;5.13;;;;;;;;;;5000530;28;20444;-64
2023/12/23 11:06:17;;;;;;;29.50;23.00;;;;;;;;;;4998341;28;20369;-70
2023/12/23 11:08:42;;;;;;;27.40;21.73;;;;;;;;;;4977107;28;20073;-64
2023/12/23 11:11:08;;;;;;;14.60;10.63;;;;;;;;;;4999669;28;20033;-67
2023/12/23 11:13:34;;;;;;;12.68;9.20;;;;;;;;;;5000096;28;20032;-65
2023/12/23 11:16:00;;;;;;;23.38;15.65;;;;;;;;;;4987174;28;20097;-65
2023/12/23 11:18:26;;;;;;;9.00;5.88;;;;;;;;;;4992228;28;20512;-69
2023/12/23 11:20:51;;;;;;;14.55;11.95;;;;;;;;;;4996489;28;20499;-68
2023/12/23 11:23:26;;;;;;;26.63;20.95;;;;;;;;;;4993809;28;20053;-69
2023/12/23 11:25:51;;;;;;;31.77;23.15;;;;;;;;;;4999285;28;20660;-66
2023/12/23 11:28:17;;;;;;;4.97;3.83;;;;;;;;;;5005069;28;20036;-69
2023/12/23 11:30:55;;;;;;;17.48;12.88;;;;;;;;;;4996660;28;20034;-66
2023/12/23 11:33:21;;;;;;;6.32;5.55;;;;;;;;;;5003531;28;20350;-68
2023/12/23 11:35:47;;;;;;;11.60;10.32;;;;;;;;;;4996584;28;20037;-65
2023/12/23 11:38:13;;;;;;;18.02;15.52;;;;;;;;;;5001884;28;20360;-64
2023/12/23 11:40:39;;;;;;;16.70;14.65;;;;;;;;;;4987067;28;20087;-69
2023/12/23 11:43:04;;;;;;;8.52;7.53;;;;;;;;;;5005345;28;20358;-69
2023/12/23 11:45:30;;;;;;;19.52;17.00;;;;;;;;;;5007091;28;20033;-70
2023/12/23 11:47:55;;;;;;;21.85;19.48;;;;;;;;;;5000367;28;20480;-65
2023/12/23 11:50:21;;;;;;;23.60;17.90;;;;;;;;;;4981201;28;20026;-65
2023/12/23 11:52:46;;;;;;;17.13;15.15;;;;;;;;;;5007087;28;20365;-64
2023/12/23 11:55:12;;;;;;;17.00;14.88;;;;;;;;;;4999563;28;20125;-65
2023/12/23 11:57:38;;;;;;;22.75;17.33;;;;;;;;;;4923299;28;20382;-65
2023/12/23 12:00:04;;;;;;;14.90;13.27;;;;;;;;;;4965830;28;20511;-65
2023/12/23 12:02:29;;;;;;;14.65;12.95;;;;;;;;;;4987484;28;20075;-64
2023/12/23 12:04:55;;;;;;;15.98;14.48;;;;;;;;;;4994116;28;20619;-67
2023/12/23 12:07:21;;;;;;;27.45;24.58;;;;;;;;;;5004437;28;20022;-66
2023/12/23 12:09:46;;;;;;;31.60;23.52;;;;;;;;;;5006269;28;20049;-66
2023/12/23 12:12:12;;;;;;;23.48;18.15;;;;;;;;;;5006213;28;20467;-65
2023/12/23 12:14:37;;;;;;;12.90;11.23;;;;;;;;;;5005509;28;20034;-68
2023/12/23 12:17:03;;;;;;;70.93;55.92;;;;;;;;;;4991245;28;20084;-68
2023/12/23 12:19:28;;;;;;;42.80;26.70;;;;;;;;;;5005488;28;20048;-68
2023/12/23 12:21:54;;;;;;;34.80;26.50;;;;;;;;;;5005228;28;20033;-67
2023/12/23 12:24:19;;;;;;;23.33;18.48;;;;;;;;;;5004694;28;20033;-65
2023/12/23 12:26:46;;;;;;;20.80;16.25;;;;;;;;;;4972667;28;20116;-67
2023/12/23 12:29:11;;;;;;;55.75;39.45;;;;;;;;;;5004387;28;20025;-65
2023/12/23 12:31:37;;;;;;;64.90;46.10;;;;;;;;;;5002771;28;20092;-64
2023/12/23 12:34:02;;;;;;;50.45;35.97;;;;;;;;;;5001714;28;20112;-67
2023/12/23 12:36:28;;;;;;;76.13;51.20;;;;;;;;;;5002774;28;21134;-67
2023/12/23 12:38:53;;;;;;;35.60;27.73;;;;;;;;;;5001967;28;20397;-64
2023/12/23 12:41:18;;;;;;;46.53;31.30;;;;;;;;;;5002077;28;20449;-67
2023/12/23 12:43:44;;;;;;;70.18;43.58;;;;;;;;;;5002813;28;20030;-65
2023/12/23 12:46:11;;;;;;;35.83;25.90;;;;;;;;;;5003442;28;20060;-64
2023/12/23 12:48:37;;;;;;;75.60;56.05;;;;;;;;;;5001414;28;20029;-68
2023/12/23 12:51:04;;;;;;;163.38;109.85;;;;;;;;;;5001748;28;20068;-65
2023/12/23 12:53:30;;;;;;;59.72;42.33;;;;;;;;;;5002653;28;20042;-66
2023/12/23 12:56:06;;;;;;;79.40;50.80;;;;;;;;;;5004007;28;20030;-67
2023/12/23 12:58:31;;;;;;;55.35;38.65;;;;;;;;;;5004667;28;20153;-67
2023/12/23 13:00:56;;;;;;;159.57;125.75;;;;;;;;;;5002288;28;20422;-64
2023/12/23 13:03:22;;;;;;;77.10;60.67;;;;;;;;;;5002153;28;20315;-67
2023/12/23 13:05:47;;;;;;;95.95;75.85;;;;;;;;;;5002656;28;20040;-64
2023/12/23 13:08:13;;;;;;;85.47;74.13;;;;;;;;;;5001254;28;20050;-67
2023/12/23 13:10:38;;;;;;;20.90;17.05;;;;;;;;;;5002143;28;20381;-69
2023/12/23 13:13:03;;;;;;;64.03;41.40;;;;;;;;;;4999333;28;20040;-66
2023/12/23 13:15:29;;;;;;;80.20;61.50;;;;;;;;;;4987815;28;20048;-68
2023/12/23 13:17:54;;;;;;;92.55;69.07;;;;;;;;;;4992760;28;20026;-65
2023/12/23 13:20:19;;;;;;;45.17;31.88;;;;;;;;;;4990629;28;20084;-68
2023/12/23 13:22:45;;;;;;;61.85;47.72;;;;;;;;;;4987979;28;20041;-66
2023/12/23 13:25:10;;;;;;;53.70;41.22;;;;;;;;;;4990512;28;20030;-65
2023/12/23 13:27:35;;;;;;;84.82;56.75;;;;;;;;;;4989321;28;20108;-68
2023/12/23 13:30:01;;;;;;;62.38;40.97;;;;;;;;;;4988081;28;20053;-65
2023/12/23 13:32:26;;;;;;;68.20;47.97;;;;;;;;;;4986814;28;20468;-66
2023/12/23 13:34:53;;;;;;;28.33;25.33;;;;;;;;;;4986486;28;20073;-68
2023/12/23 13:37:21;;;;;;;25.13;20.27;;;;;;;;;;4988319;28;20080;-68
2023/12/23 13:39:47;;;;;;;23.35;19.67;;;;;;;;;;4987114;28;20037;-68
2023/12/23 13:42:12;;;;;;;21.80;17.08;;;;;;;;;;4988205;28;20034;-68
2023/12/23 13:44:38;;;;;;;19.90;17.52;;;;;;;;;;4989268;28;20029;-66
2023/12/23 13:47:05;;;;;;;31.55;28.20;;;;;;;;;;4989062;28;20022;-67
2023/12/23 13:49:30;;;;;;;8.98;7.88;;;;;;;;;;4990245;28;20470;-68
2023/12/23 13:51:56;;;;;;;18.02;16.10;;;;;;;;;;4972424;28;20374;-65
2023/12/23 13:54:21;;;;;;;14.13;12.07;;;;;;;;;;4989500;28;20113;-66
2023/12/23 13:56:48;;;;;;;18.45;14.88;;;;;;;;;;4989408;28;20116;-68
2023/12/23 13:59:14;;;;;;;20.05;17.08;;;;;;;;;;4990133;28;20026;-67
2023/12/23 14:01:39;;;;;;;13.68;11.70;;;;;;;;;;4989152;28;20034;-66
2023/12/23 14:04:04;;;;;;;7.43;6.13;;;;;;;;;;4988361;28;20033;-66
2023/12/23 14:06:30;;;;;;;33.15;22.90;;;;;;;;;;4987493;28;20037;-65
2023/12/23 14:08:55;;;;;;;13.38;9.50;;;;;;;;;;4986936;28;20149;-68
2023/12/23 14:11:20;;;;;;;25.10;19.80;;;;;;;;;;4984939;28;20143;-67
2023/12/23 14:13:47;;;;;;;47.13;40.00;;;;;;;;;;4987739;28;20733;-66
2023/12/23 14:16:12;;;;;;;42.60;32.88;;;;;;;;;;4986406;28;20030;-69
2023/12/23 14:18:38;;;;;;;45.65;37.90;;;;;;;;;;4986243;28;20100;-66